King Bee — KINGBEE — position and weather

sailwx.info

Track history (hours):
 
Tides and Currents Weather Stations Pressure Air Temp Water Temp Dewpoint Dewpoint Depression Visibility Wind Speed Wind Dir Waves Ship Positions

King Bee

Last reported at 2017-Dec-29 07:29 UTC. Time now 2018-Feb-19 00:04 UTC.
Position N 26°56' W 079°58'.
Warning: this ship's position is 51 days out of date.

Length 15 m.

Type: Sailing vessel. MMSI: 431000933.

Date/timePositionNaut miles runAvg speedWind from/ knotsBaromVisibWave heightAir tempDewpointWater temp
2017-Dec-29 07:29N 26°56' W 079°58'2 5.1
2017-Dec-29 07:00N 26°54' W 079°58'39 4.9
2017-Dec-28 22:59N 26°15' W 080°00'2 5.0
2017-Dec-28 22:30N 26°12' W 080°01'3 5.2
2017-Dec-28 22:00N 26°10' W 080°01'3 5.5
2017-Dec-28 21:30N 26°08' W 080°03'3 5.5
2017-Dec-28 21:00N 26°06' W 080°05'2 2.4
2017-Dec-28 20:10N 26°07' W 080°07'  
2017-Dec-25 15:23N 26°07' W 080°07'1 1.0
2017-Dec-25 14:36N 26°07' W 080°07'1 5.1
2017-Dec-25 14:30N 26°06' W 080°07'2 4.6
2017-Dec-25 13:58N 26°06' W 080°04'1 2.8
2017-Dec-25 13:28N 26°06' W 080°03'1 2.8
2017-Dec-25 12:58N 26°05' W 080°02'2 4.2
2017-Dec-25 12:28N 26°03' W 080°02'2 4.7
2017-Dec-25 11:57N 26°01' W 080°01'2 4.6
2017-Dec-25 11:27N 25°59' W 079°60'2 4.3
2017-Dec-25 10:56N 25°57' W 079°59'2 4.0
2017-Dec-25 10:25N 25°55' W 079°58'5 3.9
2017-Dec-25 09:11N 25°50' W 079°56'1 4.5
2017-Dec-25 08:53N 25°49' W 079°56'  
Track history (hours):
 
Tides and Currents Weather Stations Pressure Air Temp Water Temp Dewpoint Dewpoint Depression Visibility Wind Speed Wind Dir Waves Ship Positions

King Bee

Last reported at 2017-Dec-29 07:29 UTC. Time now 2018-Feb-19 00:04 UTC.
Position N 26°56' W 079°58'.
Warning: this ship's position is 51 days out of date.

Length 15 m.

Type: Sailing vessel. MMSI: 431000933.

Date/timePositionNaut miles runAvg speedWind from/ knotsBaromVisibWave heightAir tempDewpointWater temp
2017-Dec-29 07:29N 26°56' W 079°58'2 5.1
2017-Dec-29 07:00N 26°54' W 079°58'39 4.9
2017-Dec-28 22:59N 26°15' W 080°00'2 5.0
2017-Dec-28 22:30N 26°12' W 080°01'3 5.2
2017-Dec-28 22:00N 26°10' W 080°01'3 5.5
2017-Dec-28 21:30N 26°08' W 080°03'3 5.5
2017-Dec-28 21:00N 26°06' W 080°05'2 2.4
2017-Dec-28 20:10N 26°07' W 080°07'  
2017-Dec-25 15:23N 26°07' W 080°07'1 1.0
2017-Dec-25 14:36N 26°07' W 080°07'1 5.1
2017-Dec-25 14:30N 26°06' W 080°07'2 4.6
2017-Dec-25 13:58N 26°06' W 080°04'1 2.8
2017-Dec-25 13:28N 26°06' W 080°03'1 2.8
2017-Dec-25 12:58N 26°05' W 080°02'2 4.2
2017-Dec-25 12:28N 26°03' W 080°02'2 4.7
2017-Dec-25 11:57N 26°01' W 080°01'2 4.6
2017-Dec-25 11:27N 25°59' W 079°60'2 4.3
2017-Dec-25 10:56N 25°57' W 079°59'2 4.0
2017-Dec-25 10:25N 25°55' W 079°58'5 3.9
2017-Dec-25 09:11N 25°50' W 079°56'1 4.5
2017-Dec-25 08:53N 25°49' W 079°56'  

Dump ship's entire track history